sensor_id;sensor_type;location;lat;lon;timestamp;P1;durP1;ratioP1;P2;durP2;ratioP2
5612;SDS011;63463;53.586;9.928;2023-12-22T00:00:13;61.17;;;7.43;;
5612;SDS011;63463;53.586;9.928;2023-12-22T00:02:39;56.60;;;6.90;;
5612;SDS011;63463;53.586;9.928;2023-12-22T00:05:06;89.00;;;7.73;;
5612;SDS011;63463;53.586;9.928;2023-12-22T00:07:32;81.77;;;6.90;;
5612;SDS011;63463;53.586;9.928;2023-12-22T00:09:58;82.50;;;7.40;;
5612;SDS011;63463;53.586;9.928;2023-12-22T00:12:24;59.43;;;7.40;;
5612;SDS011;63463;53.586;9.928;2023-12-22T00:14:50;64.43;;;7.73;;
5612;SDS011;63463;53.586;9.928;2023-12-22T00:17:16;66.27;;;7.03;;
5612;SDS011;63463;53.586;9.928;2023-12-22T00:19:41;50.13;;;6.30;;
5612;SDS011;63463;53.586;9.928;2023-12-22T00:22:07;71.40;;;7.17;;
5612;SDS011;63463;53.586;9.928;2023-12-22T00:24:33;79.53;;;7.70;;
5612;SDS011;63463;53.586;9.928;2023-12-22T00:26:59;47.83;;;5.53;;
5612;SDS011;63463;53.586;9.928;2023-12-22T00:29:25;70.23;;;7.53;;
5612;SDS011;63463;53.586;9.928;2023-12-22T00:31:53;76.17;;;8.03;;
5612;SDS011;63463;53.586;9.928;2023-12-22T00:34:21;63.40;;;7.60;;
5612;SDS011;63463;53.586;9.928;2023-12-22T00:36:47;60.73;;;7.50;;
5612;SDS011;63463;53.586;9.928;2023-12-22T00:39:13;70.30;;;6.97;;
5612;SDS011;63463;53.586;9.928;2023-12-22T00:41:39;75.83;;;8.30;;
5612;SDS011;63463;53.586;9.928;2023-12-22T00:44:05;79.10;;;8.57;;
5612;SDS011;63463;53.586;9.928;2023-12-22T00:46:31;92.17;;;11.87;;
5612;SDS011;63463;53.586;9.928;2023-12-22T00:48:57;76.73;;;7.40;;
5612;SDS011;63463;53.586;9.928;2023-12-22T00:51:23;90.13;;;7.83;;
5612;SDS011;63463;53.586;9.928;2023-12-22T00:53:49;100.33;;;7.67;;
5612;SDS011;63463;53.586;9.928;2023-12-22T00:56:18;100.40;;;9.03;;
5612;SDS011;63463;53.586;9.928;2023-12-22T00:58:44;96.27;;;7.33;;
5612;SDS011;63463;53.586;9.928;2023-12-22T01:01:10;93.00;;;7.53;;
5612;SDS011;63463;53.586;9.928;2023-12-22T01:03:36;95.50;;;9.10;;
5612;SDS011;63463;53.586;9.928;2023-12-22T01:06:02;92.07;;;8.30;;
5612;SDS011;63463;53.586;9.928;2023-12-22T01:08:28;80.00;;;7.00;;
5612;SDS011;63463;53.586;9.928;2023-12-22T01:10:54;90.97;;;7.57;;
5612;SDS011;63463;53.586;9.928;2023-12-22T01:13:21;75.80;;;6.47;;
5612;SDS011;63463;53.586;9.928;2023-12-22T01:15:48;86.40;;;7.77;;
5612;SDS011;63463;53.586;9.928;2023-12-22T01:18:14;87.17;;;7.30;;
5612;SDS011;63463;53.586;9.928;2023-12-22T01:20:40;77.27;;;6.60;;
5612;SDS011;63463;53.586;9.928;2023-12-22T01:23:06;87.40;;;6.27;;
5612;SDS011;63463;53.586;9.928;2023-12-22T01:25:32;85.47;;;6.13;;
5612;SDS011;63463;53.586;9.928;2023-12-22T01:27:58;82.53;;;6.73;;
5612;SDS011;63463;53.586;9.928;2023-12-22T01:30:24;80.87;;;7.07;;
5612;SDS011;63463;53.586;9.928;2023-12-22T01:32:51;83.00;;;7.10;;
5612;SDS011;63463;53.586;9.928;2023-12-22T01:35:17;78.77;;;6.37;;
5612;SDS011;63463;53.586;9.928;2023-12-22T01:37:43;82.27;;;7.50;;
5612;SDS011;63463;53.586;9.928;2023-12-22T01:40:13;88.17;;;6.87;;
5612;SDS011;63463;53.586;9.928;2023-12-22T01:42:39;82.80;;;6.97;;
5612;SDS011;63463;53.586;9.928;2023-12-22T01:45:08;87.40;;;7.67;;
5612;SDS011;63463;53.586;9.928;2023-12-22T01:47:37;85.07;;;7.10;;
5612;SDS011;63463;53.586;9.928;2023-12-22T01:50:03;92.47;;;8.10;;
5612;SDS011;63463;53.586;9.928;2023-12-22T01:52:29;91.07;;;7.80;;
5612;SDS011;63463;53.586;9.928;2023-12-22T01:54:55;91.70;;;7.83;;
5612;SDS011;63463;53.586;9.928;2023-12-22T01:57:21;98.30;;;7.80;;
5612;SDS011;63463;53.586;9.928;2023-12-22T01:59:48;99.57;;;8.97;;
5612;SDS011;63463;53.586;9.928;2023-12-22T02:02:15;104.90;;;9.10;;
5612;SDS011;63463;53.586;9.928;2023-12-22T02:04:41;111.87;;;9.97;;
5612;SDS011;63463;53.586;9.928;2023-12-22T02:07:09;113.20;;;9.40;;
5612;SDS011;63463;53.586;9.928;2023-12-22T02:09:35;122.20;;;11.40;;
5612;SDS011;63463;53.586;9.928;2023-12-22T02:12:02;134.37;;;11.87;;
5612;SDS011;63463;53.586;9.928;2023-12-22T02:14:31;130.70;;;10.30;;
5612;SDS011;63463;53.586;9.928;2023-12-22T02:19:42;120.03;;;11.23;;
5612;SDS011;63463;53.586;9.928;2023-12-22T02:22:10;123.70;;;11.40;;
5612;SDS011;63463;53.586;9.928;2023-12-22T02:24:37;123.43;;;11.80;;
5612;SDS011;63463;53.586;9.928;2023-12-22T02:27:04;134.93;;;12.70;;
5612;SDS011;63463;53.586;9.928;2023-12-22T02:29:35;140.03;;;11.57;;
5612;SDS011;63463;53.586;9.928;2023-12-22T02:32:07;135.77;;;10.93;;
5612;SDS011;63463;53.586;9.928;2023-12-22T02:34:36;132.70;;;13.43;;
5612;SDS011;63463;53.586;9.928;2023-12-22T02:37:07;146.93;;;11.53;;
5612;SDS011;63463;53.586;9.928;2023-12-22T02:39:34;136.40;;;12.30;;
5612;SDS011;63463;53.586;9.928;2023-12-22T02:42:01;120.87;;;10.40;;
5612;SDS011;63463;53.586;9.928;2023-12-22T02:44:28;136.70;;;13.40;;
5612;SDS011;63463;53.586;9.928;2023-12-22T02:46:55;185.80;;;46.10;;
5612;SDS011;63463;53.586;9.928;2023-12-22T02:49:21;126.70;;;10.77;;
5612;SDS011;63463;53.586;9.928;2023-12-22T02:51:47;129.93;;;10.83;;
5612;SDS011;63463;53.586;9.928;2023-12-22T02:54:13;124.50;;;12.80;;
5612;SDS011;63463;53.586;9.928;2023-12-22T02:56:45;123.00;;;11.10;;
5612;SDS011;63463;53.586;9.928;2023-12-22T02:59:11;130.53;;;10.63;;
5612;SDS011;63463;53.586;9.928;2023-12-22T03:01:37;117.60;;;9.90;;
5612;SDS011;63463;53.586;9.928;2023-12-22T03:04:03;115.70;;;10.10;;
5612;SDS011;63463;53.586;9.928;2023-12-22T03:06:30;114.37;;;9.83;;
5612;SDS011;63463;53.586;9.928;2023-12-22T03:08:56;112.27;;;9.33;;
5612;SDS011;63463;53.586;9.928;2023-12-22T03:11:25;109.27;;;10.03;;
5612;SDS011;63463;53.586;9.928;2023-12-22T03:13:51;116.10;;;8.80;;
5612;SDS011;63463;53.586;9.928;2023-12-22T03:16:17;107.67;;;9.33;;
5612;SDS011;63463;53.586;9.928;2023-12-22T03:18:45;104.57;;;8.40;;
5612;SDS011;63463;53.586;9.928;2023-12-22T03:21:20;100.57;;;7.80;;
5612;SDS011;63463;53.586;9.928;2023-12-22T03:23:46;103.67;;;8.37;;
5612;SDS011;63463;53.586;9.928;2023-12-22T03:26:12;105.27;;;8.00;;
5612;SDS011;63463;53.586;9.928;2023-12-22T03:28:38;106.47;;;8.20;;
5612;SDS011;63463;53.586;9.928;2023-12-22T03:31:04;102.60;;;8.30;;
5612;SDS011;63463;53.586;9.928;2023-12-22T03:33:31;99.90;;;7.90;;
5612;SDS011;63463;53.586;9.928;2023-12-22T03:36:04;105.57;;;7.90;;
5612;SDS011;63463;53.586;9.928;2023-12-22T03:38:30;102.60;;;8.00;;
5612;SDS011;63463;53.586;9.928;2023-12-22T03:40:56;97.73;;;8.10;;
5612;SDS011;63463;53.586;9.928;2023-12-22T03:43:22;98.17;;;7.90;;
5612;SDS011;63463;53.586;9.928;2023-12-22T03:45:48;101.90;;;8.80;;
5612;SDS011;63463;53.586;9.928;2023-12-22T03:48:14;104.00;;;8.37;;
5612;SDS011;63463;53.586;9.928;2023-12-22T03:50:40;106.73;;;8.23;;
5612;SDS011;63463;53.586;9.928;2023-12-22T03:53:07;102.70;;;8.10;;
5612;SDS011;63463;53.586;9.928;2023-12-22T03:55:33;105.80;;;9.27;;
5612;SDS011;63463;53.586;9.928;2023-12-22T03:57:59;99.33;;;8.40;;
5612;SDS011;63463;53.586;9.928;2023-12-22T04:00:25;102.40;;;8.67;;
5612;SDS011;63463;53.586;9.928;2023-12-22T04:02:51;96.87;;;8.33;;
5612;SDS011;63463;53.586;9.928;2023-12-22T04:05:17;104.50;;;8.67;;
5612;SDS011;63463;53.586;9.928;2023-12-22T04:07:43;115.77;;;9.13;;
5612;SDS011;63463;53.586;9.928;2023-12-22T04:10:09;133.77;;;9.13;;
5612;SDS011;63463;53.586;9.928;2023-12-22T04:12:36;105.50;;;8.73;;
5612;SDS011;63463;53.586;9.928;2023-12-22T04:15:03;103.40;;;8.40;;
5612;SDS011;63463;53.586;9.928;2023-12-22T04:17:29;98.70;;;7.40;;
5612;SDS011;63463;53.586;9.928;2023-12-22T04:19:55;102.27;;;8.20;;
5612;SDS011;63463;53.586;9.928;2023-12-22T04:22:21;114.30;;;8.87;;
5612;SDS011;63463;53.586;9.928;2023-12-22T04:24:49;104.60;;;8.03;;
5612;SDS011;63463;53.586;9.928;2023-12-22T04:27:15;106.07;;;8.30;;
5612;SDS011;63463;53.586;9.928;2023-12-22T04:29:41;107.17;;;8.83;;
5612;SDS011;63463;53.586;9.928;2023-12-22T04:32:07;96.43;;;8.03;;
5612;SDS011;63463;53.586;9.928;2023-12-22T04:34:34;135.20;;;8.50;;
5612;SDS011;63463;53.586;9.928;2023-12-22T04:37:00;99.70;;;8.37;;
5612;SDS011;63463;53.586;9.928;2023-12-22T04:39:26;103.13;;;8.83;;
5612;SDS011;63463;53.586;9.928;2023-12-22T04:41:52;94.50;;;7.30;;
5612;SDS011;63463;53.586;9.928;2023-12-22T04:44:18;116.00;;;7.73;;
5612;SDS011;63463;53.586;9.928;2023-12-22T04:46:44;95.77;;;8.20;;
5612;SDS011;63463;53.586;9.928;2023-12-22T04:49:10;93.37;;;7.73;;
5612;SDS011;63463;53.586;9.928;2023-12-22T04:51:36;105.67;;;8.27;;
5612;SDS011;63463;53.586;9.928;2023-12-22T04:54:03;98.07;;;8.53;;
5612;SDS011;63463;53.586;9.928;2023-12-22T04:56:29;95.73;;;7.27;;
5612;SDS011;63463;53.586;9.928;2023-12-22T04:58:55;105.80;;;7.80;;
5612;SDS011;63463;53.586;9.928;2023-12-22T05:01:21;101.43;;;8.53;;
5612;SDS011;63463;53.586;9.928;2023-12-22T05:03:47;96.73;;;7.70;;
5612;SDS011;63463;53.586;9.928;2023-12-22T05:06:13;108.63;;;8.10;;
5612;SDS011;63463;53.586;9.928;2023-12-22T05:08:39;101.60;;;7.97;;
5612;SDS011;63463;53.586;9.928;2023-12-22T05:11:05;108.03;;;7.67;;
5612;SDS011;63463;53.586;9.928;2023-12-22T05:13:31;117.43;;;8.70;;
5612;SDS011;63463;53.586;9.928;2023-12-22T05:15:57;94.37;;;7.47;;
5612;SDS011;63463;53.586;9.928;2023-12-22T05:18:24;90.93;;;7.00;;
5612;SDS011;63463;53.586;9.928;2023-12-22T05:20:50;92.87;;;7.90;;
5612;SDS011;63463;53.586;9.928;2023-12-22T05:23:17;98.50;;;7.90;;
5612;SDS011;63463;53.586;9.928;2023-12-22T05:25:43;96.57;;;8.90;;
5612;SDS011;63463;53.586;9.928;2023-12-22T05:28:09;95.80;;;8.23;;
5612;SDS011;63463;53.586;9.928;2023-12-22T05:30:35;108.63;;;8.33;;
5612;SDS011;63463;53.586;9.928;2023-12-22T05:33:01;95.70;;;8.20;;
5612;SDS011;63463;53.586;9.928;2023-12-22T05:35:27;107.53;;;8.37;;
5612;SDS011;63463;53.586;9.928;2023-12-22T05:37:53;103.10;;;10.13;;
5612;SDS011;63463;53.586;9.928;2023-12-22T05:40:19;109.40;;;9.27;;
5612;SDS011;63463;53.586;9.928;2023-12-22T05:42:45;101.20;;;9.20;;
5612;SDS011;63463;53.586;9.928;2023-12-22T05:45:11;117.73;;;9.93;;
5612;SDS011;63463;53.586;9.928;2023-12-22T05:47:37;96.77;;;8.33;;
5612;SDS011;63463;53.586;9.928;2023-12-22T05:50:04;101.10;;;8.33;;
5612;SDS011;63463;53.586;9.928;2023-12-22T05:52:30;106.03;;;8.40;;
5612;SDS011;63463;53.586;9.928;2023-12-22T05:54:56;99.30;;;7.70;;
5612;SDS011;63463;53.586;9.928;2023-12-22T05:57:24;100.80;;;8.93;;
5612;SDS011;63463;53.586;9.928;2023-12-22T05:59:50;110.40;;;8.83;;
5612;SDS011;63463;53.586;9.928;2023-12-22T06:02:16;102.77;;;8.93;;
5612;SDS011;63463;53.586;9.928;2023-12-22T06:04:42;101.67;;;8.17;;
5612;SDS011;63463;53.586;9.928;2023-12-22T06:07:09;101.47;;;8.87;;
5612;SDS011;63463;53.586;9.928;2023-12-22T06:09:35;102.03;;;8.50;;
5612;SDS011;63463;53.586;9.928;2023-12-22T06:12:01;101.60;;;9.40;;
5612;SDS011;63463;53.586;9.928;2023-12-22T06:14:27;116.90;;;9.17;;
5612;SDS011;63463;53.586;9.928;2023-12-22T06:16:53;99.70;;;9.10;;
5612;SDS011;63463;53.586;9.928;2023-12-22T06:19:21;97.37;;;8.27;;
5612;SDS011;63463;53.586;9.928;2023-12-22T06:21:50;103.30;;;9.40;;
5612;SDS011;63463;53.586;9.928;2023-12-22T06:24:15;100.67;;;8.27;;
5612;SDS011;63463;53.586;9.928;2023-12-22T06:26:42;120.20;;;9.37;;
5612;SDS011;63463;53.586;9.928;2023-12-22T06:29:09;115.77;;;10.33;;
5612;SDS011;63463;53.586;9.928;2023-12-22T06:31:36;106.57;;;9.00;;
5612;SDS011;63463;53.586;9.928;2023-12-22T06:34:02;107.53;;;8.70;;
5612;SDS011;63463;53.586;9.928;2023-12-22T06:36:28;115.20;;;10.20;;
5612;SDS011;63463;53.586;9.928;2023-12-22T06:38:57;106.67;;;9.17;;
5612;SDS011;63463;53.586;9.928;2023-12-22T06:41:28;101.57;;;9.43;;
5612;SDS011;63463;53.586;9.928;2023-12-22T06:43:54;110.30;;;9.10;;
5612;SDS011;63463;53.586;9.928;2023-12-22T06:46:21;107.57;;;10.00;;
5612;SDS011;63463;53.586;9.928;2023-12-22T06:48:47;104.17;;;9.20;;
5612;SDS011;63463;53.586;9.928;2023-12-22T06:51:18;104.23;;;10.13;;
5612;SDS011;63463;53.586;9.928;2023-12-22T06:53:44;110.07;;;10.20;;
5612;SDS011;63463;53.586;9.928;2023-12-22T06:56:14;113.97;;;9.90;;
5612;SDS011;63463;53.586;9.928;2023-12-22T06:58:40;155.30;;;11.50;;
5612;SDS011;63463;53.586;9.928;2023-12-22T07:01:07;104.93;;;10.20;;
5612;SDS011;63463;53.586;9.928;2023-12-22T07:03:33;130.90;;;9.73;;
5612;SDS011;63463;53.586;9.928;2023-12-22T07:05:59;107.03;;;9.83;;
5612;SDS011;63463;53.586;9.928;2023-12-22T07:08:25;110.00;;;9.83;;
5612;SDS011;63463;53.586;9.928;2023-12-22T07:10:51;107.27;;;8.57;;
5612;SDS011;63463;53.586;9.928;2023-12-22T07:13:18;119.00;;;9.63;;
5612;SDS011;63463;53.586;9.928;2023-12-22T07:15:45;118.87;;;9.73;;
5612;SDS011;63463;53.586;9.928;2023-12-22T07:18:11;95.97;;;8.60;;
5612;SDS011;63463;53.586;9.928;2023-12-22T07:20:38;99.13;;;8.90;;
5612;SDS011;63463;53.586;9.928;2023-12-22T07:23:04;115.07;;;8.90;;
5612;SDS011;63463;53.586;9.928;2023-12-22T07:25:34;116.17;;;9.13;;
5612;SDS011;63463;53.586;9.928;2023-12-22T07:28:00;94.13;;;7.97;;
5612;SDS011;63463;53.586;9.928;2023-12-22T07:30:26;104.13;;;8.50;;
5612;SDS011;63463;53.586;9.928;2023-12-22T07:32:52;93.60;;;8.57;;
5612;SDS011;63463;53.586;9.928;2023-12-22T07:35:18;109.03;;;10.53;;
5612;SDS011;63463;53.586;9.928;2023-12-22T07:37:44;98.13;;;9.00;;
5612;SDS011;63463;53.586;9.928;2023-12-22T07:40:10;104.03;;;9.13;;
5612;SDS011;63463;53.586;9.928;2023-12-22T07:42:37;101.00;;;8.80;;
5612;SDS011;63463;53.586;9.928;2023-12-22T07:45:03;108.57;;;8.37;;
5612;SDS011;63463;53.586;9.928;2023-12-22T07:47:30;99.17;;;8.37;;
5612;SDS011;63463;53.586;9.928;2023-12-22T07:49:56;109.90;;;8.90;;
5612;SDS011;63463;53.586;9.928;2023-12-22T07:52:21;94.73;;;8.10;;
5612;SDS011;63463;53.586;9.928;2023-12-22T07:54:47;112.40;;;9.63;;
5612;SDS011;63463;53.586;9.928;2023-12-22T07:57:13;103.77;;;9.33;;
5612;SDS011;63463;53.586;9.928;2023-12-22T07:59:39;101.50;;;9.37;;
5612;SDS011;63463;53.586;9.928;2023-12-22T08:02:05;101.37;;;9.13;;
5612;SDS011;63463;53.586;9.928;2023-12-22T08:04:31;101.03;;;9.53;;
5612;SDS011;63463;53.586;9.928;2023-12-22T08:06:57;114.37;;;11.70;;
5612;SDS011;63463;53.586;9.928;2023-12-22T08:09:23;108.20;;;9.90;;
5612;SDS011;63463;53.586;9.928;2023-12-22T08:11:50;105.93;;;9.60;;
5612;SDS011;63463;53.586;9.928;2023-12-22T08:14:21;101.57;;;8.30;;
5612;SDS011;63463;53.586;9.928;2023-12-22T08:16:47;100.93;;;8.93;;
5612;SDS011;63463;53.586;9.928;2023-12-22T08:19:13;98.67;;;8.00;;
5612;SDS011;63463;53.586;9.928;2023-12-22T08:21:39;101.63;;;8.33;;
5612;SDS011;63463;53.586;9.928;2023-12-22T08:24:05;111.13;;;8.53;;
5612;SDS011;63463;53.586;9.928;2023-12-22T08:26:36;98.97;;;8.43;;
5612;SDS011;63463;53.586;9.928;2023-12-22T08:29:02;133.07;;;9.57;;
5612;SDS011;63463;53.586;9.928;2023-12-22T08:31:28;103.33;;;8.97;;
5612;SDS011;63463;53.586;9.928;2023-12-22T08:33:55;101.53;;;8.90;;
5612;SDS011;63463;53.586;9.928;2023-12-22T08:36:23;106.70;;;9.80;;
5612;SDS011;63463;53.586;9.928;2023-12-22T08:38:49;113.37;;;9.37;;
5612;SDS011;63463;53.586;9.928;2023-12-22T08:41:15;118.23;;;10.10;;
5612;SDS011;63463;53.586;9.928;2023-12-22T08:43:41;136.57;;;10.00;;
5612;SDS011;63463;53.586;9.928;2023-12-22T08:46:07;104.70;;;9.23;;
5612;SDS011;63463;53.586;9.928;2023-12-22T08:48:35;101.13;;;8.93;;
5612;SDS011;63463;53.586;9.928;2023-12-22T08:51:02;127.03;;;10.10;;
5612;SDS011;63463;53.586;9.928;2023-12-22T08:53:29;118.20;;;10.23;;
5612;SDS011;63463;53.586;9.928;2023-12-22T08:56:00;101.87;;;9.03;;
5612;SDS011;63463;53.586;9.928;2023-12-22T08:58:26;111.03;;;8.97;;
5612;SDS011;63463;53.586;9.928;2023-12-22T09:00:52;100.80;;;9.07;;
5612;SDS011;63463;53.586;9.928;2023-12-22T09:03:18;98.43;;;9.20;;
5612;SDS011;63463;53.586;9.928;2023-12-22T09:05:44;94.83;;;8.00;;
5612;SDS011;63463;53.586;9.928;2023-12-22T09:08:10;103.80;;;9.40;;
5612;SDS011;63463;53.586;9.928;2023-12-22T09:10:36;104.20;;;8.30;;
5612;SDS011;63463;53.586;9.928;2023-12-22T09:13:02;104.00;;;9.67;;
5612;SDS011;63463;53.586;9.928;2023-12-22T09:15:28;99.83;;;8.63;;
5612;SDS011;63463;53.586;9.928;2023-12-22T09:17:56;102.77;;;8.80;;
5612;SDS011;63463;53.586;9.928;2023-12-22T09:20:22;104.17;;;9.27;;
5612;SDS011;63463;53.586;9.928;2023-12-22T09:22:48;100.90;;;9.50;;
5612;SDS011;63463;53.586;9.928;2023-12-22T09:25:14;95.07;;;10.53;;
5612;SDS011;63463;53.586;9.928;2023-12-22T09:27:40;102.77;;;8.10;;
5612;SDS011;63463;53.586;9.928;2023-12-22T09:30:06;94.67;;;7.90;;
5612;SDS011;63463;53.586;9.928;2023-12-22T09:32:32;87.37;;;7.30;;
5612;SDS011;63463;53.586;9.928;2023-12-22T09:34:59;94.70;;;7.37;;
5612;SDS011;63463;53.586;9.928;2023-12-22T09:37:26;95.67;;;7.13;;
5612;SDS011;63463;53.586;9.928;2023-12-22T09:39:53;102.57;;;7.17;;
5612;SDS011;63463;53.586;9.928;2023-12-22T09:42:20;108.70;;;10.03;;
5612;SDS011;63463;53.586;9.928;2023-12-22T09:44:47;83.90;;;7.23;;
5612;SDS011;63463;53.586;9.928;2023-12-22T09:47:14;86.23;;;6.13;;
5612;SDS011;63463;53.586;9.928;2023-12-22T09:49:42;88.27;;;7.17;;
5612;SDS011;63463;53.586;9.928;2023-12-22T09:52:09;91.67;;;7.10;;
5612;SDS011;63463;53.586;9.928;2023-12-22T09:54:36;89.63;;;7.57;;
5612;SDS011;63463;53.586;9.928;2023-12-22T09:57:03;86.77;;;7.00;;
5612;SDS011;63463;53.586;9.928;2023-12-22T09:59:30;94.53;;;7.27;;
5612;SDS011;63463;53.586;9.928;2023-12-22T10:01:56;99.73;;;7.20;;
5612;SDS011;63463;53.586;9.928;2023-12-22T10:04:23;85.80;;;8.40;;
5612;SDS011;63463;53.586;9.928;2023-12-22T10:06:49;87.30;;;7.20;;
5612;SDS011;63463;53.586;9.928;2023-12-22T10:09:20;89.13;;;6.30;;
5612;SDS011;63463;53.586;9.928;2023-12-22T10:11:46;87.33;;;6.77;;
5612;SDS011;63463;53.586;9.928;2023-12-22T10:14:13;87.73;;;7.40;;
5612;SDS011;63463;53.586;9.928;2023-12-22T10:16:46;87.93;;;7.23;;
5612;SDS011;63463;53.586;9.928;2023-12-22T10:19:12;86.33;;;6.93;;
5612;SDS011;63463;53.586;9.928;2023-12-22T10:21:39;96.87;;;6.73;;
5612;SDS011;63463;53.586;9.928;2023-12-22T10:24:04;87.57;;;6.97;;
5612;SDS011;63463;53.586;9.928;2023-12-22T10:26:30;84.17;;;7.53;;
5612;SDS011;63463;53.586;9.928;2023-12-22T10:28:59;82.20;;;6.80;;
5612;SDS011;63463;53.586;9.928;2023-12-22T10:31:26;101.73;;;7.77;;
5612;SDS011;63463;53.586;9.928;2023-12-22T10:33:53;92.10;;;8.43;;
5612;SDS011;63463;53.586;9.928;2023-12-22T10:36:19;94.13;;;7.87;;
5612;SDS011;63463;53.586;9.928;2023-12-22T10:38:45;99.80;;;10.60;;
5612;SDS011;63463;53.586;9.928;2023-12-22T10:41:11;89.77;;;7.40;;
5612;SDS011;63463;53.586;9.928;2023-12-22T10:43:38;97.20;;;7.93;;
5612;SDS011;63463;53.586;9.928;2023-12-22T10:46:04;96.53;;;8.00;;
5612;SDS011;63463;53.586;9.928;2023-12-22T10:48:30;94.37;;;8.30;;
5612;SDS011;63463;53.586;9.928;2023-12-22T10:50:56;97.47;;;9.47;;
5612;SDS011;63463;53.586;9.928;2023-12-22T10:53:23;101.20;;;7.60;;
5612;SDS011;63463;53.586;9.928;2023-12-22T10:55:50;106.27;;;7.90;;
5612;SDS011;63463;53.586;9.928;2023-12-22T10:58:16;93.20;;;7.77;;
5612;SDS011;63463;53.586;9.928;2023-12-22T11:00:50;103.97;;;9.20;;
5612;SDS011;63463;53.586;9.928;2023-12-22T11:03:17;100.03;;;9.30;;
5612;SDS011;63463;53.586;9.928;2023-12-22T11:05:46;139.20;;;8.80;;
5612;SDS011;63463;53.586;9.928;2023-12-22T11:08:14;107.53;;;8.53;;
5612;SDS011;63463;53.586;9.928;2023-12-22T11:10:42;101.17;;;8.10;;
5612;SDS011;63463;53.586;9.928;2023-12-22T11:13:08;110.97;;;8.37;;
5612;SDS011;63463;53.586;9.928;2023-12-22T11:15:35;100.60;;;8.80;;
5612;SDS011;63463;53.586;9.928;2023-12-22T11:18:02;121.70;;;9.40;;
5612;SDS011;63463;53.586;9.928;2023-12-22T11:20:30;108.87;;;9.90;;
5612;SDS011;63463;53.586;9.928;2023-12-22T11:22:57;96.90;;;7.50;;
5612;SDS011;63463;53.586;9.928;2023-12-22T11:25:26;98.50;;;7.57;;
5612;SDS011;63463;53.586;9.928;2023-12-22T11:27:54;101.37;;;7.80;;
5612;SDS011;63463;53.586;9.928;2023-12-22T11:30:22;104.53;;;8.30;;
5612;SDS011;63463;53.586;9.928;2023-12-22T11:32:49;104.80;;;8.00;;
5612;SDS011;63463;53.586;9.928;2023-12-22T11:35:15;102.53;;;8.73;;
5612;SDS011;63463;53.586;9.928;2023-12-22T11:37:42;116.70;;;8.67;;
5612;SDS011;63463;53.586;9.928;2023-12-22T11:40:09;105.17;;;8.60;;
5612;SDS011;63463;53.586;9.928;2023-12-22T11:42:37;119.03;;;8.37;;
5612;SDS011;63463;53.586;9.928;2023-12-22T11:45:09;106.73;;;8.37;;
5612;SDS011;63463;53.586;9.928;2023-12-22T11:47:35;97.50;;;8.20;;
5612;SDS011;63463;53.586;9.928;2023-12-22T11:50:04;101.37;;;8.23;;
5612;SDS011;63463;53.586;9.928;2023-12-22T11:52:30;104.43;;;8.27;;
5612;SDS011;63463;53.586;9.928;2023-12-22T11:54:57;108.53;;;8.73;;
5612;SDS011;63463;53.586;9.928;2023-12-22T12:00:44;114.40;;;8.80;;
5612;SDS011;63463;53.586;9.928;2023-12-22T12:02:55;116.17;;;8.10;;
5612;SDS011;63463;53.586;9.928;2023-12-22T12:05:21;119.60;;;10.67;;
5612;SDS011;63463;53.586;9.928;2023-12-22T12:07:48;107.60;;;9.13;;
5612;SDS011;63463;53.586;9.928;2023-12-22T12:13:09;111.47;;;9.23;;
5612;SDS011;63463;53.586;9.928;2023-12-22T12:15:35;125.13;;;10.37;;
5612;SDS011;63463;53.586;9.928;2023-12-22T12:18:02;113.03;;;9.63;;
5612;SDS011;63463;53.586;9.928;2023-12-22T12:20:31;100.03;;;8.50;;
5612;SDS011;63463;53.586;9.928;2023-12-22T12:22:57;104.10;;;8.50;;
5612;SDS011;63463;53.586;9.928;2023-12-22T12:25:26;99.20;;;8.10;;
5612;SDS011;63463;53.586;9.928;2023-12-22T12:28:00;103.17;;;9.37;;
5612;SDS011;63463;53.586;9.928;2023-12-22T12:30:28;101.73;;;8.10;;
5612;SDS011;63463;53.586;9.928;2023-12-22T12:32:58;106.27;;;8.43;;
5612;SDS011;63463;53.586;9.928;2023-12-22T12:35:29;105.33;;;8.90;;
5612;SDS011;63463;53.586;9.928;2023-12-22T12:37:55;122.53;;;9.13;;
5612;SDS011;63463;53.586;9.928;2023-12-22T12:40:25;110.07;;;10.00;;
5612;SDS011;63463;53.586;9.928;2023-12-22T12:43:03;112.23;;;8.60;;
5612;SDS011;63463;53.586;9.928;2023-12-22T12:45:45;106.33;;;8.70;;
5612;SDS011;63463;53.586;9.928;2023-12-22T12:48:33;135.53;;;9.47;;
5612;SDS011;63463;53.586;9.928;2023-12-22T12:51:16;104.13;;;9.50;;
5612;SDS011;63463;53.586;9.928;2023-12-22T12:56:51;111.37;;;9.27;;
5612;SDS011;63463;53.586;9.928;2023-12-22T12:59:23;106.37;;;8.57;;
5612;SDS011;63463;53.586;9.928;2023-12-22T13:02:12;118.67;;;7.60;;
5612;SDS011;63463;53.586;9.928;2023-12-22T13:05:05;108.17;;;8.40;;
5612;SDS011;63463;53.586;9.928;2023-12-22T13:07:34;104.83;;;8.43;;
5612;SDS011;63463;53.586;9.928;2023-12-22T13:10:02;111.37;;;9.53;;
5612;SDS011;63463;53.586;9.928;2023-12-22T13:12:31;106.83;;;9.10;;
5612;SDS011;63463;53.586;9.928;2023-12-22T13:15:01;100.07;;;8.63;;
5612;SDS011;63463;53.586;9.928;2023-12-22T13:17:29;107.30;;;8.20;;
5612;SDS011;63463;53.586;9.928;2023-12-22T13:19:56;102.93;;;8.57;;
5612;SDS011;63463;53.586;9.928;2023-12-22T13:22:22;108.90;;;9.20;;
5612;SDS011;63463;53.586;9.928;2023-12-22T13:24:55;96.30;;;7.30;;
5612;SDS011;63463;53.586;9.928;2023-12-22T13:27:22;95.53;;;8.10;;
5612;SDS011;63463;53.586;9.928;2023-12-22T13:29:48;103.90;;;8.40;;
5612;SDS011;63463;53.586;9.928;2023-12-22T13:32:17;113.63;;;9.10;;
5612;SDS011;63463;53.586;9.928;2023-12-22T13:34:47;100.23;;;8.10;;
5612;SDS011;63463;53.586;9.928;2023-12-22T13:37:14;102.80;;;7.70;;
5612;SDS011;63463;53.586;9.928;2023-12-22T13:39:40;102.80;;;9.13;;
5612;SDS011;63463;53.586;9.928;2023-12-22T13:42:16;98.07;;;6.90;;
5612;SDS011;63463;53.586;9.928;2023-12-22T13:44:45;99.33;;;8.40;;
5612;SDS011;63463;53.586;9.928;2023-12-22T13:47:17;120.33;;;9.97;;
5612;SDS011;63463;53.586;9.928;2023-12-22T13:49:46;94.50;;;7.93;;
5612;SDS011;63463;53.586;9.928;2023-12-22T13:52:26;101.77;;;7.87;;
5612;SDS011;63463;53.586;9.928;2023-12-22T13:54:52;94.73;;;6.80;;
5612;SDS011;63463;53.586;9.928;2023-12-22T13:57:26;105.40;;;9.20;;
5612;SDS011;63463;53.586;9.928;2023-12-22T13:59:57;104.20;;;7.67;;
5612;SDS011;63463;53.586;9.928;2023-12-22T14:02:27;90.70;;;7.60;;
5612;SDS011;63463;53.586;9.928;2023-12-22T14:04:59;107.60;;;7.63;;
5612;SDS011;63463;53.586;9.928;2023-12-22T14:07:39;101.47;;;8.30;;
5612;SDS011;63463;53.586;9.928;2023-12-22T14:10:21;97.90;;;7.10;;
5612;SDS011;63463;53.586;9.928;2023-12-22T14:12:53;120.43;;;8.40;;
5612;SDS011;63463;53.586;9.928;2023-12-22T14:15:24;116.27;;;9.50;;
5612;SDS011;63463;53.586;9.928;2023-12-22T14:17:53;98.47;;;7.87;;
5612;SDS011;63463;53.586;9.928;2023-12-22T14:20:20;111.50;;;8.63;;
5612;SDS011;63463;53.586;9.928;2023-12-22T14:22:46;97.37;;;7.30;;
5612;SDS011;63463;53.586;9.928;2023-12-22T14:25:13;93.60;;;7.33;;
5612;SDS011;63463;53.586;9.928;2023-12-22T14:27:41;110.43;;;7.73;;
5612;SDS011;63463;53.586;9.928;2023-12-22T14:30:10;100.07;;;7.10;;
5612;SDS011;63463;53.586;9.928;2023-12-22T14:32:56;96.70;;;7.70;;
5612;SDS011;63463;53.586;9.928;2023-12-22T14:35:23;98.87;;;8.20;;
5612;SDS011;63463;53.586;9.928;2023-12-22T14:38:06;99.93;;;7.80;;
5612;SDS011;63463;53.586;9.928;2023-12-22T14:40:46;89.97;;;6.70;;
5612;SDS011;63463;53.586;9.928;2023-12-22T14:43:12;103.53;;;7.90;;
5612;SDS011;63463;53.586;9.928;2023-12-22T14:45:39;95.20;;;7.33;;
5612;SDS011;63463;53.586;9.928;2023-12-22T14:48:05;97.80;;;7.70;;
5612;SDS011;63463;53.586;9.928;2023-12-22T14:50:34;100.50;;;7.97;;